Time;durP1;ratioP1;P1;durP2;ratioP2;P2;SDS_P1;SDS_P2;PMS_P1;PMS_P2;Temp;Humidity;BMP_temperature;BMP_pressure;BME280_temperature;BME280_humidity;BME280_pressure;Samples;Min_cycle;Max_cycle;Signal;HPM_P1;HPM_P2
2021/10/02 00:36:17;;;;;;;6.67;4.13;;;;;;;7.87;100.00;95604.00;5061769;28;20043;-81
2021/10/02 00:46:51;;;;;;;10.18;4.28;;;;;;;7.75;100.00;95599.72;5052364;28;20064;-81
2021/10/02 00:49:18;;;;;;;8.50;4.30;;;;;;;7.83;100.00;95601.13;5050661;28;20048;-80
2021/10/02 00:51:44;;;;;;;6.55;3.65;;;;;;;7.83;100.00;95602.94;5069136;28;20072;-81
2021/10/02 00:54:10;;;;;;;11.60;4.20;;;;;;;7.83;100.00;95603.72;5050097;28;20041;-80
2021/10/02 00:56:36;;;;;;;8.18;4.03;;;;;;;7.76;100.00;95609.16;5050163;28;20047;-81
2021/10/02 00:59:01;;;;;;;7.60;4.10;;;;;;;7.69;100.00;95598.09;5050043;28;20102;-80
2021/10/02 01:01:40;;;;;;;7.95;4.45;;;;;;;7.74;100.00;95611.25;5050822;28;20045;-81
2021/10/02 01:04:39;;;;;;;8.13;4.18;;;;;;;7.76;100.00;95614.41;5072887;28;20533;-80
2021/10/02 01:07:16;;;;;;;7.35;3.97;;;;;;;7.69;100.00;95608.56;5060843;28;20045;-81
2021/10/02 01:10:06;;;;;;;8.02;4.38;;;;;;;7.74;100.00;95602.59;5043488;28;20033;-81
2021/10/02 01:12:56;;;;;;;8.45;4.00;;;;;;;7.76;100.00;95609.16;5054196;28;20044;-80
2021/10/02 01:15:45;;;;;;;6.57;3.83;;;;;;;7.80;100.00;95605.00;5063776;28;20045;-82
2021/10/02 01:18:23;;;;;;;9.00;4.50;;;;;;;7.83;100.00;95602.94;5032888;28;20052;-81
2021/10/02 01:20:57;;;;;;;8.80;3.95;;;;;;;7.80;100.00;95610.25;5053511;28;20518;-80
2021/10/02 01:23:42;;;;;;;11.25;4.25;;;;;;;7.75;100.00;95597.09;5062328;28;20037;-81
2021/10/02 01:26:28;;;;;;;11.18;5.32;;;;;;;7.79;100.00;95608.66;5072302;28;20044;-81
2021/10/02 01:28:57;;;;;;;8.80;3.83;;;;;;;7.74;100.00;95600.78;5055714;28;20044;-80
2021/10/02 01:47:56;;;;;;;7.95;3.92;;;;;;;7.83;100.00;95581.97;5052131;28;20041;-80
2021/10/02 01:50:30;;;;;;;9.48;4.45;;;;;;;7.80;100.00;95581.44;5044498;28;20040;-80
2021/10/02 01:52:59;;;;;;;8.25;3.75;;;;;;;7.74;100.00;95579.81;5053694;28;20044;-80
2021/10/02 01:55:27;;;;;;;6.82;3.67;;;;;;;7.79;100.00;95585.09;5052094;28;20153;-80
2021/10/02 01:57:58;;;;;;;8.50;3.97;;;;;;;7.86;100.00;95591.94;5071959;28;20056;-80
2021/10/02 02:00:24;;;;;;;9.57;4.13;;;;;;;7.76;100.00;95582.19;5073401;28;20043;-80
2021/10/02 02:02:55;;;;;;;8.07;4.35;;;;;;;7.66;100.00;95582.88;5084647;28;20048;-80
2021/10/02 02:05:23;;;;;;;7.30;4.10;;;;;;;7.82;100.00;95585.66;5034866;28;20096;-81
2021/10/02 02:07:53;;;;;;;8.18;4.10;;;;;;;7.91;100.00;95584.13;5061632;28;20109;-80
2021/10/02 02:10:22;;;;;;;7.20;3.92;;;;;;;7.84;100.00;95576.47;5071361;28;20102;-80
2021/10/02 02:12:49;;;;;;;8.30;4.07;;;;;;;7.79;100.00;95574.59;5069982;28;20047;-78
2021/10/02 02:15:17;;;;;;;7.22;4.00;;;;;;;7.76;100.00;95577.72;5067815;28;20044;-80
2021/10/02 02:17:46;;;;;;;6.60;3.80;;;;;;;7.73;100.00;95580.84;5069218;28;20101;-78
2021/10/02 02:20:20;;;;;;;8.52;3.97;;;;;;;7.71;100.00;95580.28;5068844;28;20082;-78
2021/10/02 02:22:47;;;;;;;7.25;4.40;;;;;;;7.73;100.00;95578.22;5071861;28;20040;-78
2021/10/02 02:25:13;;;;;;;7.28;3.78;;;;;;;7.79;100.00;95579.84;5051680;28;20051;-78
2021/10/02 02:27:38;;;;;;;7.13;3.92;;;;;;;7.76;100.00;95577.72;5069306;28;20048;-78
2021/10/02 02:30:05;;;;;;;7.18;3.78;;;;;;;7.72;100.00;95576.66;5069697;28;20045;-79
2021/10/02 02:32:31;;;;;;;7.22;4.22;;;;;;;7.78;100.00;95570.41;5070624;28;20052;-80
2021/10/02 02:34:57;;;;;;;6.60;3.92;;;;;;;7.77;100.00;95573.28;5071271;28;20048;-79
2021/10/02 02:37:23;;;;;;;9.15;4.18;;;;;;;7.83;100.00;95577.53;5066504;28;20044;-80
2021/10/02 02:39:48;;;;;;;7.68;3.88;;;;;;;7.89;100.00;95570.50;5071549;28;20048;-79
2021/10/02 02:42:14;;;;;;;9.80;4.22;;;;;;;7.80;100.00;95559.66;5053345;28;20509;-80
2021/10/02 02:44:39;;;;;;;7.63;3.88;;;;;;;7.83;100.00;95568.88;5053165;28;20048;-80
2021/10/02 02:47:11;;;;;;;6.22;3.55;;;;;;;7.99;100.00;95581.06;5065091;28;20040;-79
2021/10/02 02:49:41;;;;;;;8.55;4.18;;;;;;;8.03;100.00;95576.09;5053241;28;20040;-80
2021/10/02 02:52:50;;;;;;;11.38;4.18;;;;;;;7.93;100.00;95582.84;5071178;28;20684;-80
2021/10/02 02:55:20;;;;;;;6.50;4.03;;;;;;;7.94;100.00;95578.38;5008509;28;20117;-79
2021/10/02 02:57:48;;;;;;;7.40;4.07;;;;;;;8.11;100.00;95586.13;5071601;28;20048;-79
2021/10/02 03:00:19;;;;;;;7.28;3.97;;;;;;;8.02;100.00;95575.31;5054007;28;20066;-79
2021/10/02 03:03:00;;;;;;;9.60;3.90;;;;;;;8.14;100.00;95575.91;5070835;28;20044;-79
2021/10/02 03:05:28;;;;;;;10.27;3.92;;;;;;;8.08;100.00;95574.31;5051849;28;20051;-79
2021/10/02 03:08:02;;;;;;;7.28;3.75;;;;;;;8.12;100.00;95575.38;5067514;28;20044;-80
2021/10/02 03:10:29;;;;;;;9.48;4.10;;;;;;;8.19;100.00;95579.59;5053390;28;20052;-80
2021/10/02 03:13:00;;;;;;;9.15;3.85;;;;;;;8.11;100.00;95573.78;5052837;28;20050;-79
2021/10/02 03:15:27;;;;;;;6.68;3.72;;;;;;;8.02;100.00;95580.56;5071588;28;20094;-80
2021/10/02 03:17:53;;;;;;;6.22;3.60;;;;;;;7.83;100.00;95577.53;5051265;28;20048;-79
2021/10/02 03:20:21;;;;;;;7.40;3.88;;;;;;;7.80;100.00;95584.06;5070836;28;20048;-79
2021/10/02 03:22:50;;;;;;;7.88;3.90;;;;;;;7.73;100.00;95583.47;5052254;28;20490;-79
2021/10/02 03:25:17;;;;;;;7.25;4.20;;;;;;;7.87;100.00;95577.81;5052406;28;20038;-80
2021/10/02 03:27:43;;;;;;;8.85;3.90;;;;;;;7.71;100.00;95575.06;5039102;28;20076;-79
2021/10/02 03:30:09;;;;;;;8.57;4.28;;;;;;;7.85;100.00;95574.66;5052606;28;20075;-80
2021/10/02 03:32:35;;;;;;;7.57;3.70;;;;;;;7.70;100.00;95578.72;5070310;28;20053;-80
2021/10/02 03:35:01;;;;;;;8.13;3.75;;;;;;;7.82;100.00;95580.41;5051070;28;20052;-79
2021/10/02 03:37:29;;;;;;;9.95;4.20;;;;;;;7.87;100.00;95583.06;5048424;28;20041;-79
2021/10/02 03:39:54;;;;;;;8.30;3.75;;;;;;;7.78;100.00;95574.84;5063521;28;20051;-79
2021/10/02 03:42:21;;;;;;;8.35;3.88;;;;;;;7.83;100.00;95581.97;5052132;28;20044;-80
2021/10/02 03:44:49;;;;;;;7.50;3.65;;;;;;;7.93;100.00;95582.03;5070936;28;20036;-80
2021/10/02 03:47:17;;;;;;;6.47;3.70;;;;;;;7.78;100.00;95580.88;5061240;28;20106;-80
2021/10/02 03:49:44;;;;;;;8.50;4.10;;;;;;;7.70;100.00;95583.16;5070258;28;20037;-80
2021/10/02 03:52:11;;;;;;;5.88;3.38;;;;;;;7.55;100.00;95578.59;5052367;28;20781;-80
2021/10/02 03:54:37;;;;;;;6.95;3.97;;;;;;;7.65;100.00;95576.06;5061919;28;20041;-80
2021/10/02 03:57:04;;;;;;;5.78;3.60;;;;;;;7.64;100.00;95584.94;5040765;28;20468;-79
2021/10/02 03:59:30;;;;;;;6.78;3.53;;;;;;;7.58;100.00;95570.22;5052448;28;20040;-80
2021/10/02 04:01:56;;;;;;;6.97;3.08;;;;;;;7.66;100.00;95572.41;5069662;28;20044;-80
2021/10/02 04:04:22;;;;;;;7.07;3.60;;;;;;;7.59;100.00;95569.19;5069229;28;20498;-80
2021/10/02 04:06:49;;;;;;;6.13;3.45;;;;;;;7.47;100.00;95569.38;5068729;28;20037;-80
2021/10/02 04:09:15;;;;;;;8.60;3.88;;;;;;;7.44;100.00;95564.59;5061735;28;20121;-80
2021/10/02 04:11:41;;;;;;;6.68;3.63;;;;;;;7.41;100.00;95560.66;5051661;28;20109;-79
2021/10/02 04:14:07;;;;;;;6.82;3.80;;;;;;;7.37;100.00;95564.81;5070281;28;20490;-79
2021/10/02 04:16:32;;;;;;;9.25;4.05;;;;;;;7.36;100.00;95573.69;5050330;28;20132;-80
2021/10/02 04:18:59;;;;;;;6.07;3.42;;;;;;;7.43;100.00;95569.06;5032855;28;20045;-79
2021/10/02 04:21:24;;;;;;;5.70;3.50;;;;;;;7.36;100.00;95576.31;5070250;28;20434;-79
2021/10/02 04:23:51;;;;;;;6.63;3.35;;;;;;;7.33;100.00;95563.72;5048461;28;20052;-79
2021/10/02 04:26:18;;;;;;;8.50;3.70;;;;;;;7.38;100.00;95566.38;5068387;28;20067;-80
2021/10/02 04:28:43;;;;;;;7.03;3.80;;;;;;;7.31;100.00;95568.41;5052374;28;20044;-80
2021/10/02 04:31:09;;;;;;;5.95;3.30;;;;;;;7.26;100.00;95563.13;5069694;28;20394;-81
2021/10/02 04:33:36;;;;;;;8.77;4.20;;;;;;;7.19;100.00;95567.78;5051306;28;20049;-80
2021/10/02 04:36:02;;;;;;;7.07;3.80;;;;;;;7.24;100.00;95570.41;5048310;28;20044;-80
2021/10/02 04:38:28;;;;;;;6.90;4.03;;;;;;;7.24;100.00;95570.41;5073231;28;20099;-80
2021/10/02 04:40:54;;;;;;;6.55;3.80;;;;;;;7.15;100.00;95582.38;5073969;28;20040;-79
2021/10/02 04:43:21;;;;;;;6.78;3.53;;;;;;;7.13;100.00;95579.22;5074052;28;20052;-80
2021/10/02 04:45:47;;;;;;;6.53;3.53;;;;;;;7.17;100.00;95575.88;5053481;28;20033;-80
2021/10/02 04:48:13;;;;;;;6.82;3.55;;;;;;;7.24;100.00;95575.66;5069624;28;20414;-79
2021/10/02 04:50:38;;;;;;;6.68;3.58;;;;;;;7.18;100.00;95577.44;5073509;28;20048;-80
2021/10/02 04:53:04;;;;;;;5.97;3.47;;;;;;;7.07;100.00;95571.31;5074086;28;20081;-79
2021/10/02 04:55:30;;;;;;;6.95;4.20;;;;;;;7.14;100.00;95575.56;5051743;28;20041;-79
2021/10/02 04:57:56;;;;;;;7.30;4.05;;;;;;;7.11;100.00;95572.41;5054108;28;20041;-80
2021/10/02 05:00:21;;;;;;;7.40;3.83;;;;;;;7.10;100.00;95568.19;5061744;28;20052;-80
2021/10/02 05:02:47;;;;;;;6.80;3.85;;;;;;;7.15;100.00;95582.38;5058945;28;20040;-80
2021/10/02 05:05:12;;;;;;;7.50;4.15;;;;;;;7.16;100.00;95573.50;5073901;28;20453;-80
2021/10/02 05:07:38;;;;;;;7.65;3.95;;;;;;;7.20;100.00;95579.81;5054541;28;21523;-79
2021/10/02 05:10:04;;;;;;;7.05;3.55;;;;;;;7.18;100.00;95576.66;5073065;28;20541;-79
2021/10/02 05:12:30;;;;;;;6.97;3.80;;;;;;;7.19;100.00;95578.22;5073764;28;20041;-79
2021/10/02 05:14:55;;;;;;;6.10;3.63;;;;;;;7.20;100.00;95579.81;5056026;28;20047;-79
2021/10/02 05:17:21;;;;;;;6.47;3.72;;;;;;;7.23;100.00;95576.72;5053527;28;20047;-80
2021/10/02 05:19:46;;;;;;;5.63;3.70;;;;;;;7.29;100.00;95583.56;5054768;28;20047;-80
2021/10/02 05:22:12;;;;;;;8.45;4.13;;;;;;;7.32;100.00;95585.69;5055651;28;20047;-81
2021/10/02 05:24:38;;;;;;;7.95;3.90;;;;;;;7.28;100.00;95587.22;5068944;28;20115;-80
2021/10/02 05:27:06;;;;;;;7.18;3.95;;;;;;;7.23;100.00;95589.81;5054934;28;20047;-80
2021/10/02 05:29:40;;;;;;;7.43;4.22;;;;;;;7.33;100.00;95583.88;5055980;28;20048;-80
2021/10/02 05:32:07;;;;;;;6.78;3.70;;;;;;;7.30;100.00;95587.78;5073208;28;20428;-79
2021/10/02 05:34:33;;;;;;;7.93;3.97;;;;;;;7.27;100.00;95580.44;5055048;28;20418;-80
2021/10/02 05:36:59;;;;;;;8.35;3.78;;;;;;;7.27;100.00;95585.66;5065059;28;20045;-80
2021/10/02 05:39:25;;;;;;;7.28;3.97;;;;;;;7.32;100.00;95593.53;5053858;28;20531;-79
2021/10/02 05:41:52;;;;;;;8.32;3.83;;;;;;;7.34;100.00;95596.72;5072647;28;20045;-80
2021/10/02 05:44:18;;;;;;;10.50;4.00;;;;;;;7.34;100.00;95586.25;5072834;28;20102;-79
2021/10/02 05:46:44;;;;;;;10.60;4.40;;;;;;;7.36;100.00;95589.41;5071657;28;20048;-79
2021/10/02 05:49:09;;;;;;;7.97;4.20;;;;;;;7.51;100.00;95596.63;5053133;28;20059;-80
2021/10/02 05:51:35;;;;;;;8.32;4.30;;;;;;;7.53;100.00;95588.50;5072471;28;20106;-79
2021/10/02 05:54:00;;;;;;;6.97;3.90;;;;;;;7.61;100.00;95590.69;5072897;28;20048;-79
2021/10/02 05:56:26;;;;;;;7.38;3.90;;;;;;;7.65;100.00;95586.53;5070130;28;20044;-79
2021/10/02 05:58:52;;;;;;;8.07;4.60;;;;;;;7.75;100.00;95597.09;5064455;28;20048;-80
2021/10/02 06:01:19;;;;;;;9.65;4.30;;;;;;;7.85;100.00;95600.88;5054023;28;20052;-80
2021/10/02 06:03:45;;;;;;;8.70;3.83;;;;;;;7.91;100.00;95594.63;5071303;28;20051;-80
2021/10/02 06:06:12;;;;;;;7.68;3.95;;;;;;;7.95;100.00;95590.47;5044706;28;20094;-80
2021/10/02 06:08:37;;;;;;;8.50;4.22;;;;;;;8.04;100.00;95596.81;5036565;28;20054;-80
2021/10/02 06:11:03;;;;;;;7.32;4.22;;;;;;;8.08;100.00;95594.50;5072673;28;20422;-80
2021/10/02 06:13:29;;;;;;;5.97;3.70;;;;;;;8.20;100.00;95597.69;5072732;28;20052;-79
2021/10/02 06:15:54;;;;;;;7.85;3.83;;;;;;;8.27;100.00;95608.00;5071483;28;20032;-80
2021/10/02 06:18:20;;;;;;;8.80;4.10;;;;;;;8.38;100.00;95604.41;5051375;28;20545;-80
2021/10/02 06:20:46;;;;;;;7.65;4.07;;;;;;;8.57;100.00;95612.66;5053075;28;20093;-80
2021/10/02 06:23:11;;;;;;;11.23;4.15;;;;;;;8.58;100.00;95608.22;5055202;28;20167;-79
2021/10/02 06:25:37;;;;;;;8.65;4.43;;;;;;;8.59;100.00;95604.53;5054453;28;20102;-81
2021/10/02 06:28:02;;;;;;;7.50;3.90;;;;;;;8.61;100.00;95612.97;5053656;28;20044;-79
2021/10/02 06:30:28;;;;;;;10.88;4.20;;;;;;;8.73;100.00;95624.03;5071536;28;20044;-79
2021/10/02 06:32:53;;;;;;;6.80;3.95;;;;;;;8.77;100.00;95616.47;5072243;28;20824;-80
2021/10/02 06:35:19;;;;;;;8.23;4.10;;;;;;;8.81;100.00;95613.06;5047066;28;20048;-80
2021/10/02 06:37:45;;;;;;;7.60;4.00;;;;;;;8.96;100.00;95614.19;5052365;28;20045;-79
2021/10/02 06:40:12;;;;;;;7.43;3.97;;;;;;;9.09;100.00;95612.91;5050688;28;20044;-79
2021/10/02 06:42:38;;;;;;;7.60;4.05;;;;;;;9.15;100.00;95612.69;5053774;28;20044;-80
2021/10/02 06:45:05;;;;;;;7.25;3.90;;;;;;;9.24;100.00;95609.53;5053214;28;20078;-79
2021/10/02 06:47:31;;;;;;;7.55;3.95;;;;;;;9.38;100.00;95610.66;5072064;28;20048;-80
2021/10/02 06:49:57;;;;;;;7.45;4.15;;;;;;;9.50;100.00;95608.56;5064389;28;20489;-79
2021/10/02 06:52:27;;;;;;;7.53;4.15;;;;;;;9.68;100.00;95609.13;5053987;28;20111;-79
2021/10/02 06:54:54;;;;;;;7.38;4.05;;;;;;;9.82;100.00;95618.09;5065152;28;20037;-80
2021/10/02 06:57:20;;;;;;;6.85;4.20;;;;;;;9.98;100.00;95618.09;5066999;28;20048;-80
2021/10/02 06:59:46;;;;;;;6.80;3.83;;;;;;;10.07;100.00;95611.28;5070416;28;20071;-80
2021/10/02 07:02:12;;;;;;;9.00;4.45;;;;;;;10.23;100.00;95610.22;5035610;28;20037;-80
2021/10/02 07:04:37;;;;;;;6.75;4.00;;;;;;;10.39;100.00;95608.38;5052382;28;20052;-80
2021/10/02 07:07:04;;;;;;;6.72;4.00;;;;;;;10.48;100.00;95611.25;5062286;28;20041;-80
2021/10/02 07:09:30;;;;;;;7.68;4.05;;;;;;;10.57;100.00;95614.94;5053923;28;20414;-80
2021/10/02 07:11:56;;;;;;;8.02;4.15;;;;;;;10.66;100.00;95606.47;5069815;28;20136;-80
2021/10/02 07:14:22;;;;;;;9.27;4.60;;;;;;;10.76;100.00;95601.22;5070258;28;20473;-80
2021/10/02 07:16:48;;;;;;;8.35;4.30;;;;;;;11.07;100.00;95606.38;5047706;28;20651;-80
2021/10/02 07:19:14;;;;;;;9.95;4.45;;;;;;;11.33;100.00;95608.91;5069391;28;20032;-80
2021/10/02 07:21:40;;;;;;;7.93;3.92;;;;;;;12.04;94.47;95601.59;5052651;28;20040;-79
2021/10/02 07:24:06;;;;;;;7.10;3.78;;;;;;;12.54;92.17;95604.88;5068131;28;20114;-81
2021/10/02 07:26:31;;;;;;;7.53;3.50;;;;;;;12.95;89.62;95598.38;5070407;28;20037;-79
2021/10/02 07:28:57;;;;;;;6.43;3.63;;;;;;;13.17;89.20;95595.19;5069308;28;20052;-80
2021/10/02 07:31:23;;;;;;;8.00;3.75;;;;;;;13.46;88.07;95603.06;5050039;28;20047;-77
2021/10/02 07:33:49;;;;;;;7.40;3.55;;;;;;;13.62;86.26;95601.00;5058262;28;20041;-76
2021/10/02 07:36:19;;;;;;;7.85;3.80;;;;;;;13.65;87.00;95600.41;5048676;28;20175;-76
2021/10/02 07:38:46;;;;;;;7.68;3.80;;;;;;;13.75;85.58;95596.03;5049337;28;20106;-76
2021/10/02 07:41:14;;;;;;;7.45;3.60;;;;;;;13.73;85.78;95595.56;5068108;28;20048;-76
2021/10/02 07:43:41;;;;;;;6.75;3.60;;;;;;;13.78;85.61;95604.19;5068035;28;20542;-78
2021/10/02 07:46:09;;;;;;;6.75;3.95;;;;;;;13.58;88.87;95600.00;5064667;28;20405;-77
2021/10/02 07:48:38;;;;;;;6.68;3.90;;;;;;;13.39;90.24;95602.63;5067248;28;20048;-78
2021/10/02 07:51:04;;;;;;;8.15;3.40;;;;;;;13.38;90.44;95589.72;5067160;28;20125;-78
2021/10/02 07:53:31;;;;;;;8.52;3.90;;;;;;;13.43;89.40;95589.63;5050231;28;20455;-77
2021/10/02 07:55:59;;;;;;;5.93;3.70;;;;;;;13.32;91.51;95586.31;5048869;28;20083;-76
2021/10/02 07:58:25;;;;;;;6.10;3.70;;;;;;;13.48;87.79;95592.22;5059327;28;20041;-77
2021/10/02 08:00:56;;;;;;;8.02;3.90;;;;;;;13.83;86.24;95590.13;5048774;28;20036;-77
2021/10/02 08:03:23;;;;;;;8.23;3.95;;;;;;;13.87;86.21;95596.41;5050210;28;20063;-77
2021/10/02 08:05:49;;;;;;;10.82;4.05;;;;;;;13.98;85.89;95597.81;5067684;28;20041;-79
2021/10/02 08:08:16;;;;;;;6.38;4.00;;;;;;;14.08;85.70;95590.78;5065584;28;20098;-81
2021/10/02 08:10:43;;;;;;;9.43;4.32;;;;;;;14.12;85.88;95591.78;5048945;28;20498;-80
2021/10/02 08:13:12;;;;;;;7.18;4.22;;;;;;;14.13;86.17;95596.00;5066534;28;20047;-80
2021/10/02 08:15:41;;;;;;;6.57;4.00;;;;;;;14.41;85.25;95590.78;5064689;28;20048;-82
2021/10/02 08:18:07;;;;;;;8.55;4.57;;;;;;;14.50;83.94;95586.38;5063561;28;20040;-79
2021/10/02 08:20:34;;;;;;;8.93;4.82;;;;;;;14.82;81.88;95582.13;5068942;28;20109;-81
2021/10/02 08:23:00;;;;;;;8.50;5.03;;;;;;;15.07;79.69;95584.28;5070044;28;20386;-78
2021/10/02 08:25:26;;;;;;;7.90;4.40;;;;;;;15.13;80.96;95592.13;5066691;28;20067;-78
2021/10/02 08:27:52;;;;;;;8.40;4.60;;;;;;;15.34;78.52;95588.00;5051589;28;20037;-80
2021/10/02 08:30:19;;;;;;;7.78;4.65;;;;;;;15.28;78.55;95594.47;5052308;28;20513;-87
2021/10/02 08:32:45;;;;;;;8.45;4.30;;;;;;;15.40;78.26;95586.78;5072667;28;20419;-79
2021/10/02 08:35:12;;;;;;;8.43;4.43;;;;;;;15.64;76.29;95574.34;5053931;28;20037;-79
2021/10/02 08:37:38;;;;;;;12.43;4.70;;;;;;;15.55;77.71;95571.63;5054679;28;20055;-78
2021/10/02 08:40:08;;;;;;;10.07;4.95;;;;;;;15.65;78.35;95568.75;5051872;28;20052;-79
2021/10/02 08:42:37;;;;;;;12.98;5.40;;;;;;;15.68;77.96;95570.78;5043255;28;20041;-78
2021/10/02 08:45:04;;;;;;;9.18;5.00;;;;;;;15.63;80.27;95573.56;5060839;28;20064;-78
2021/10/02 08:47:34;;;;;;;9.07;4.90;;;;;;;15.48;79.82;95565.94;5053546;28;20498;-78
2021/10/02 08:50:01;;;;;;;8.65;4.90;;;;;;;15.92;77.51;95561.81;5061087;28;20060;-77
2021/10/02 08:52:28;;;;;;;11.13;5.32;;;;;;;16.10;75.41;95563.50;5067384;28;20032;-78
2021/10/02 08:54:57;;;;;;;9.30;5.22;;;;;;;16.14;74.42;95560.22;5058621;28;20060;-78
2021/10/02 08:57:25;;;;;;;9.93;4.95;;;;;;;16.13;74.49;95561.31;5052011;28;20071;-78
2021/10/02 08:59:51;;;;;;;10.45;5.43;;;;;;;16.42;72.71;95561.63;5061828;28;20506;-77
2021/10/02 09:02:18;;;;;;;12.68;5.18;;;;;;;16.56;72.41;95550.88;5050133;28;20045;-79
2021/10/02 09:04:44;;;;;;;9.98;5.32;;;;;;;16.48;74.05;95542.88;5069688;28;20055;-78
2021/10/02 09:07:11;;;;;;;11.43;5.25;;;;;;;16.73;73.47;95544.84;5068443;28;20098;-79
2021/10/02 09:09:38;;;;;;;9.02;5.18;;;;;;;17.00;69.21;95540.44;5054237;28;20403;-80
2021/10/02 09:12:05;;;;;;;9.52;5.20;;;;;;;17.00;67.67;95526.38;5071077;28;20052;-79
2021/10/02 09:14:31;;;;;;;11.15;5.22;;;;;;;17.16;67.60;95534.69;5071453;28;20040;-79
2021/10/02 09:16:57;;;;;;;7.25;4.78;;;;;;;17.22;68.33;95531.56;5068717;28;20048;-78
2021/10/02 09:19:22;;;;;;;8.05;4.75;;;;;;;17.28;67.23;95532.19;5047277;28;20056;-78
2021/10/02 09:22:01;;;;;;;8.05;4.95;;;;;;;17.30;67.83;95530.03;5076607;28;20508;-79
2021/10/02 09:24:47;;;;;;;9.45;4.80;;;;;;;17.49;67.99;95533.16;5043567;28;20059;-79
2021/10/02 09:27:24;;;;;;;9.98;5.30;;;;;;;17.40;66.82;95524.38;5052212;28;20072;-78
2021/10/02 09:30:02;;;;;;;11.40;5.13;;;;;;;17.48;65.57;95528.94;5065895;28;20055;-80
2021/10/02 09:32:56;;;;;;;8.52;5.00;;;;;;;17.51;66.03;95524.06;5052119;28;20061;-76
2021/10/02 09:35:22;;;;;;;8.93;4.95;;;;;;;17.59;65.53;95528.63;5057952;28;20121;-76
2021/10/02 09:37:53;;;;;;;12.10;5.25;;;;;;;18.09;63.30;95522.78;5062669;28;20260;-76
2021/10/02 09:40:22;;;;;;;10.90;5.00;;;;;;;18.34;62.52;95523.03;5068094;28;20182;-76
2021/10/02 09:42:51;;;;;;;10.38;5.18;;;;;;;18.39;62.72;95525.53;5062169;28;20116;-76
2021/10/02 09:45:41;;;;;;;8.40;5.00;;;;;;;18.52;61.72;95524.53;5058785;28;20509;-76
2021/10/02 09:48:14;;;;;;;7.85;4.82;;;;;;;18.78;63.90;95523.63;5052609;28;20562;-76
2021/10/02 09:50:48;;;;;;;13.23;4.83;;;;;;;19.03;63.81;95515.84;5059114;28;20056;-77
2021/10/02 09:53:18;;;;;;;10.13;4.72;;;;;;;19.45;58.62;95525.75;5059959;28;20103;-76
2021/10/02 09:55:53;;;;;;;7.80;4.80;;;;;;;19.62;58.99;95512.28;5073139;28;20060;-75
2021/10/02 09:58:31;;;;;;;6.72;4.65;;;;;;;19.95;57.20;95522.22;5061901;28;20520;-74
2021/10/02 10:00:57;;;;;;;10.25;5.03;;;;;;;20.05;56.53;95510.34;5049250;28;20057;-74
2021/10/02 10:03:23;;;;;;;8.20;4.53;;;;;;;19.69;59.39;95514.44;5070820;28;20090;-75
2021/10/02 10:05:54;;;;;;;7.68;4.90;;;;;;;19.90;56.86;95509.88;5070848;28;20594;-75
2021/10/02 10:08:26;;;;;;;10.35;5.50;;;;;;;20.45;54.98;95501.75;5064868;28;20044;-74
2021/10/02 10:11:05;;;;;;;9.85;4.75;;;;;;;20.85;56.24;95503.78;5059308;28;20479;-75
2021/10/02 10:13:30;;;;;;;9.75;5.05;;;;;;;21.04;55.77;95495.16;5062949;28;20417;-76
2021/10/02 10:15:57;;;;;;;10.20;4.85;;;;;;;21.61;55.61;95496.06;5066207;28;20069;-76
2021/10/02 10:18:26;;;;;;;10.02;5.13;;;;;;;21.73;52.29;95502.50;5060848;28;20055;-77
2021/10/02 10:20:57;;;;;;;8.93;4.47;;;;;;;22.33;48.95;95493.72;5071085;28;20055;-76
2021/10/02 10:23:31;;;;;;;8.95;5.20;;;;;;;22.34;50.07;95492.59;5069549;28;20094;-76
2021/10/02 10:26:00;;;;;;;8.52;5.10;;;;;;;23.00;46.57;95491.84;5069096;28;20047;-76
2021/10/02 10:28:28;;;;;;;9.60;5.10;;;;;;;22.25;49.58;95490.81;5070089;28;20536;-76
2021/10/02 10:30:54;;;;;;;11.45;5.60;;;;;;;22.37;49.61;95491.91;5051639;28;20133;-77
2021/10/02 10:33:21;;;;;;;9.10;5.07;;;;;;;23.33;47.69;95484.50;5066609;28;20701;-77
2021/10/02 10:35:53;;;;;;;8.70;5.10;;;;;;;23.13;48.71;95481.00;5051634;28;20094;-77
2021/10/02 10:38:24;;;;;;;8.82;5.03;;;;;;;23.62;47.42;95477.78;5070724;28;20468;-77
2021/10/02 10:40:52;;;;;;;8.82;5.50;;;;;;;23.55;46.03;95472.28;5070910;28;20426;-77
2021/10/02 10:43:18;;;;;;;8.43;5.00;;;;;;;24.35;43.03;95475.28;5070379;28;20036;-76
2021/10/02 10:45:44;;;;;;;7.93;4.97;;;;;;;23.89;45.39;95469.88;5059360;28;20040;-81
2021/10/02 10:48:11;;;;;;;7.55;5.07;;;;;;;24.41;45.83;95472.28;5052878;28;20041;-82
2021/10/02 10:50:40;;;;;;;8.13;5.10;;;;;;;24.30;44.28;95467.50;5070733;28;20044;-83
2021/10/02 10:53:06;;;;;;;8.60;5.18;;;;;;;24.32;43.85;95453.69;5072736;28;20715;-83
2021/10/02 10:55:32;;;;;;;8.85;5.32;;;;;;;24.40;43.01;95455.38;5059689;28;20051;-84
2021/10/02 10:58:02;;;;;;;8.15;5.10;;;;;;;23.92;45.74;95452.25;5055556;28;20044;-84
2021/10/02 11:00:30;;;;;;;7.88;5.57;;;;;;;23.04;47.31;95453.56;5071637;28;20125;-84
2021/10/02 11:03:03;;;;;;;9.25;5.30;;;;;;;24.23;46.43;95456.63;5070861;28;20091;-84
2021/10/02 11:05:34;;;;;;;8.77;5.22;;;;;;;25.48;41.86;95445.38;5053189;28;20157;-82
2021/10/02 11:08:01;;;;;;;11.93;5.38;;;;;;;25.53;40.95;95447.72;5052648;28;20052;-83
2021/10/02 11:10:45;;;;;;;10.00;5.25;;;;;;;25.64;40.58;95437.84;5044882;28;20407;-81
2021/10/02 11:13:39;;;;;;;8.90;5.75;;;;;;;25.16;41.06;95429.56;5070326;28;20048;-79
2021/10/02 11:16:33;;;;;;;9.77;5.78;;;;;;;25.06;44.63;95420.97;5069627;28;20114;-79
2021/10/02 11:18:59;;;;;;;9.13;5.05;;;;;;;25.93;41.35;95422.75;5041814;28;20057;-85
2021/10/02 11:21:29;;;;;;;8.88;5.80;;;;;;;25.48;42.50;95423.81;5072738;28;20040;-84
2021/10/02 11:24:04;;;;;;;7.47;5.20;;;;;;;26.44;39.79;95418.56;5072524;28;20119;-83
2021/10/02 11:26:55;;;;;;;10.65;5.32;;;;;;;26.11;42.97;95417.53;5053813;28;20056;-83
2021/10/02 11:29:32;;;;;;;8.02;5.65;;;;;;;25.86;43.49;95411.09;5038339;28;20045;-81
2021/10/02 11:32:30;;;;;;;8.65;5.50;;;;;;;26.74;40.19;95408.75;5065749;28;20052;-80
2021/10/02 11:35:30;;;;;;;9.10;5.15;;;;;;;26.32;39.70;95401.88;5071171;28;20132;-83
2021/10/02 11:38:05;;;;;;;8.82;5.20;;;;;;;26.21;40.94;95399.13;5047185;28;20048;-80
2021/10/02 11:40:39;;;;;;;8.02;5.25;;;;;;;26.74;40.31;95396.03;5069498;28;20055;-80
2021/10/02 11:43:12;;;;;;;8.65;5.32;;;;;;;27.14;39.79;95394.31;5069196;28;20090;-80
2021/10/02 11:45:41;;;;;;;8.25;5.40;;;;;;;26.86;38.45;95394.16;5061318;28;20696;-81
2021/10/02 11:48:11;;;;;;;8.88;5.68;;;;;;;27.05;40.40;95385.78;5064984;28;20044;-81
2021/10/02 11:50:36;;;;;;;8.55;5.05;;;;;;;27.56;35.51;95380.56;5068979;28;20045;-82
2021/10/02 11:53:02;;;;;;;8.55;5.68;;;;;;;26.73;38.06;95374.81;5069665;28;20047;-81
2021/10/02 11:55:42;;;;;;;8.75;5.38;;;;;;;25.71;40.27;95375.94;5053212;28;20041;-87
2021/10/02 11:58:08;;;;;;;7.78;5.22;;;;;;;26.51;38.65;95373.91;5053020;28;20037;-88
2021/10/02 12:00:34;;;;;;;9.30;5.50;;;;;;;26.79;36.63;95366.00;5051056;28;20559;-78
2021/10/02 12:03:01;;;;;;;9.20;5.25;;;;;;;26.47;38.19;95362.31;5070249;28;20036;-79
2021/10/02 12:05:27;;;;;;;8.88;5.10;;;;;;;26.94;36.78;95363.38;5069344;28;20047;-80
2021/10/02 12:07:53;;;;;;;7.53;5.30;;;;;;;27.83;33.50;95346.63;5058103;28;20104;-80
2021/10/02 12:10:19;;;;;;;9.25;4.75;;;;;;;27.35;33.82;95355.03;5071901;28;20070;-79
2021/10/02 12:12:45;;;;;;;9.15;5.00;;;;;;;27.79;36.81;95347.78;5077087;28;20553;-78
2021/10/02 12:15:11;;;;;;;8.80;5.47;;;;;;;27.98;33.89;95352.06;5072342;28;20036;-79
2021/10/02 12:17:52;;;;;;;10.60;5.10;;;;;;;26.60;35.44;95350.81;5040118;28;20044;-80
2021/10/02 12:20:18;;;;;;;6.82;4.50;;;;;;;26.64;34.32;95348.16;5050268;28;20122;-80
2021/10/02 12:22:43;;;;;;;8.02;5.60;;;;;;;26.22;37.95;95342.09;5068488;28;20123;-80
2021/10/02 12:25:09;;;;;;;8.88;5.20;;;;;;;26.25;37.19;95335.19;5061121;28;20053;-81
2021/10/02 12:27:36;;;;;;;9.20;5.40;;;;;;;26.62;36.49;95326.13;5074654;28;20036;-80
2021/10/02 12:30:06;;;;;;;9.18;5.20;;;;;;;27.48;35.54;95310.28;5055818;28;20494;-80
2021/10/02 12:32:33;;;;;;;6.68;5.07;;;;;;;27.41;35.20;95325.72;5061122;28;20040;-81
2021/10/02 12:35:00;;;;;;;9.65;5.50;;;;;;;28.48;35.27;95324.94;5073403;28;20502;-75
2021/10/02 12:37:31;;;;;;;6.90;5.00;;;;;;;28.39;33.00;95321.09;5065121;28;20044;-76
2021/10/02 12:39:58;;;;;;;9.10;5.68;;;;;;;27.56;35.00;95315.72;5060835;28;20040;-80